Decoded Metar for LFRB (BREST in FRANCE) (IATA:BES) | Meteo·Mobile Aviation Weather
aviador You're here:

LFRB Decoded Metar

BREST in FRANCE
Report Time2020-01-21 03:00:00
UTC Time2020-01-21 03:17:36
Flight Rules vfr VFR
Wind030° at 03 kt
W.Decomp.*RWY 07: 2.4 kt HW 1.8 kt LCW
Visibility9999 m
Phenomena:N/A
Clouds:N/A
Expected CloudBase > 1,200 ft AGL from Temp-Dew spread
CeilingNone
Temp06°C (ISA -8)
Dew Point03°C (81% RH)
AAT3.4°C
QNH1041 hPa
Density Alt-1,506 ft
Elevation338 ft
Report Wrong Elevation
Raw Report
LFRB 210300Z AUTO 03003KT CAVOK 06/03 Q1041 NOSIG=

Extra information for LFRB:More info

Metar Taf Metar & Taf Last 4 Metars F.Rules Stats Wind Profile Meteogram Temp Stats Airport Information Weather charts Add Link Nearby VenuesMetar ALERT Operation Metar Decoded Social comments